createdAt,value
2023-04-05T00:02:11.147Z,13.70
2023-04-05T00:04:52.536Z,13.50
2023-04-05T00:07:22.004Z,13.50
2023-04-05T00:09:51.302Z,13.40
2023-04-05T00:12:20.757Z,13.30
2023-04-05T00:14:51.022Z,13.10
2023-04-05T00:17:20.996Z,13.10
2023-04-05T00:19:58.811Z,13.00
2023-04-05T00:22:36.095Z,12.90
2023-04-05T00:25:07.476Z,13.30
2023-04-05T00:27:36.987Z,13.30
2023-04-05T00:30:09.256Z,13.40
2023-04-05T00:32:38.410Z,13.30
2023-04-05T00:35:07.973Z,13.10
2023-04-05T00:37:39.051Z,13.10
2023-04-05T00:40:09.524Z,13.30
2023-04-05T00:42:40.619Z,13.00
2023-04-05T00:45:11.662Z,12.80
2023-04-05T00:47:43.328Z,12.80
2023-04-05T00:50:14.002Z,13.10
2023-04-05T00:52:45.186Z,13.00
2023-04-05T00:55:15.547Z,12.80
2023-04-05T00:57:45.535Z,12.80
2023-04-05T01:00:17.694Z,12.60
2023-04-05T01:02:53.267Z,12.80
2023-04-05T01:05:33.186Z,12.60
2023-04-05T01:08:12.963Z,12.90
2023-04-05T01:10:47.054Z,13.10
2023-04-05T01:13:18.764Z,13.20
2023-04-05T01:15:50.238Z,13.10
2023-04-05T01:18:22.086Z,13.10
2023-04-05T01:20:59.195Z,13.10
2023-04-05T01:23:39.954Z,13.00
2023-04-05T01:26:41.031Z,12.90
2023-04-05T01:29:36.380Z,13.20
2023-04-05T01:32:13.819Z,13.00
2023-04-05T01:34:49.358Z,12.80
2023-04-05T01:37:22.854Z,12.90
2023-04-05T01:39:54.757Z,12.90
2023-04-05T01:42:27.106Z,13.10
2023-04-05T01:44:59.559Z,13.00
2023-04-05T01:47:30.107Z,13.00
2023-04-05T01:49:59.145Z,13.20
2023-04-05T01:52:28.935Z,13.00
2023-04-05T01:54:58.663Z,12.90
2023-04-05T01:57:27.766Z,12.80
2023-04-05T01:59:58.784Z,12.70
2023-04-05T02:02:29.389Z,12.50
2023-04-05T02:04:58.314Z,12.40
2023-04-05T02:07:28.031Z,12.30
2023-04-05T02:09:57.879Z,12.20
2023-04-05T02:12:27.635Z,12.40
2023-04-05T02:14:59.360Z,12.50
2023-04-05T02:17:39.479Z,12.60
2023-04-05T02:20:12.740Z,12.30
2023-04-05T02:22:41.930Z,12.30
2023-04-05T02:25:11.797Z,12.40
2023-04-05T02:27:42.024Z,12.30
2023-04-05T02:30:14.123Z,12.00
2023-04-05T02:32:45.668Z,12.00
2023-04-05T02:35:14.902Z,11.90
2023-04-05T02:37:44.923Z,11.90
2023-04-05T02:40:17.182Z,11.90
2023-04-05T02:42:46.291Z,11.90
2023-04-05T02:45:18.310Z,11.80
2023-04-05T02:47:48.735Z,11.90
2023-04-05T02:50:20.929Z,12.00
2023-04-05T02:52:50.072Z,12.10
2023-04-05T02:55:20.140Z,12.00
2023-04-05T02:57:51.147Z,11.80
2023-04-05T03:00:29.242Z,11.70
2023-04-05T03:03:01.050Z,11.80
2023-04-05T03:05:30.705Z,11.80
2023-04-05T03:08:02.402Z,11.90
2023-04-05T03:10:37.305Z,12.00
2023-04-05T03:13:15.234Z,11.90
2023-04-05T03:15:48.396Z,11.90
2023-04-05T03:18:20.778Z,11.90
2023-04-05T03:20:57.605Z,12.00
2023-04-05T03:23:29.948Z,11.80
2023-04-05T03:26:02.251Z,11.90
2023-04-05T03:28:35.573Z,11.90
2023-04-05T03:31:10.564Z,12.00
2023-04-05T03:33:41.336Z,11.90
2023-04-05T03:36:10.332Z,11.90
2023-04-05T03:38:42.669Z,11.90
2023-04-05T03:41:20.007Z,11.80
2023-04-05T03:43:51.135Z,11.70
2023-04-05T03:46:26.080Z,11.80
2023-04-05T03:48:56.454Z,11.80
2023-04-05T03:51:25.942Z,11.80
2023-04-05T03:53:55.267Z,11.80
2023-04-05T03:56:28.372Z,11.70
2023-04-05T03:58:59.288Z,11.80
2023-04-05T04:01:32.166Z,11.70
2023-04-05T04:04:02.353Z,11.70
2023-04-05T04:06:32.086Z,11.60
2023-04-05T04:09:01.197Z,11.80
2023-04-05T04:11:33.805Z,11.60
2023-04-05T04:14:07.304Z,11.90
2023-04-05T04:16:44.625Z,11.70
2023-04-05T04:19:25.550Z,11.50
2023-04-05T04:22:00.191Z,11.50
2023-04-05T04:25:10.875Z,11.50
2023-04-05T04:28:13.783Z,11.40
2023-04-05T04:30:59.007Z,11.40
2023-04-05T04:33:52.420Z,11.40
2023-04-05T04:36:43.118Z,11.30
2023-04-05T04:39:28.378Z,11.30
2023-04-05T04:42:20.190Z,11.30
2023-04-05T04:45:11.456Z,11.40
2023-04-05T04:48:01.415Z,11.40
2023-04-05T04:50:47.464Z,11.40
2023-04-05T04:53:18.208Z,11.60
2023-04-05T04:55:51.098Z,11.60
2023-04-05T04:58:21.640Z,11.60
2023-04-05T05:01:00.956Z,11.60
2023-04-05T05:03:30.660Z,11.60
2023-04-05T05:06:01.945Z,11.60
2023-04-05T05:08:34.183Z,11.60
2023-04-05T05:11:03.609Z,11.70
2023-04-05T05:13:33.469Z,12.00
2023-04-05T05:16:06.595Z,12.10
2023-04-05T05:18:36.398Z,12.20
2023-04-05T05:21:06.839Z,12.10
2023-04-05T05:23:37.547Z,12.00
2023-04-05T05:26:07.173Z,11.90
2023-04-05T05:28:37.168Z,11.90
2023-04-05T05:31:07.311Z,11.80
2023-04-05T05:33:38.744Z,11.80
2023-04-05T05:36:10.447Z,11.70
2023-04-05T05:38:39.593Z,11.70
2023-04-05T05:41:08.538Z,11.80
2023-04-05T05:43:39.415Z,11.90
2023-04-05T05:46:08.402Z,11.90
2023-04-05T05:48:38.836Z,12.00
2023-04-05T05:51:10.445Z,11.90
2023-04-05T05:53:40.351Z,11.90
2023-04-05T05:56:09.645Z,11.90
2023-04-05T05:58:41.876Z,11.90
2023-04-05T06:01:38.482Z,11.90
2023-04-05T06:04:11.096Z,11.90
2023-04-05T06:06:44.047Z,11.90
2023-04-05T06:09:15.656Z,12.00
2023-04-05T06:11:55.943Z,12.00
2023-04-05T06:14:27.847Z,12.10
2023-04-05T06:16:56.669Z,12.10
2023-04-05T06:19:26.978Z,12.20
2023-04-05T06:21:57.901Z,12.20
2023-04-05T06:24:27.413Z,12.30
2023-04-05T06:26:56.950Z,12.30
2023-04-05T06:29:28.506Z,12.40
2023-04-05T06:31:57.460Z,12.30
2023-04-05T06:34:27.918Z,12.40
2023-04-05T06:36:59.952Z,12.30
2023-04-05T06:39:29.561Z,12.60
2023-04-05T06:41:58.555Z,12.50
2023-04-05T06:44:35.887Z,12.50
2023-04-05T06:47:06.153Z,12.60
2023-04-05T06:49:36.982Z,12.70
2023-04-05T06:52:08.947Z,12.90
2023-04-05T06:54:40.410Z,12.90
2023-04-05T06:57:09.248Z,13.10
2023-04-05T06:59:39.462Z,13.10
2023-04-05T07:02:10.209Z,13.00
2023-04-05T07:04:40.250Z,13.00
2023-04-05T07:07:11.778Z,13.10
2023-04-05T07:09:42.033Z,12.90
2023-04-05T07:12:11.343Z,13.10
2023-04-05T07:14:42.273Z,13.00
2023-04-05T07:17:11.815Z,13.20
2023-04-05T07:19:41.531Z,13.30
2023-04-05T07:22:12.023Z,13.20
2023-04-05T07:24:41.965Z,13.40
2023-04-05T07:27:11.061Z,13.50
2023-04-05T07:29:44.573Z,13.50
2023-04-05T07:32:15.954Z,13.50
2023-04-05T07:34:45.585Z,13.50
2023-04-05T07:37:16.169Z,13.70
2023-04-05T07:39:45.323Z,13.60
2023-04-05T07:42:14.345Z,13.80
2023-04-05T07:44:44.623Z,13.90
2023-04-05T07:47:14.346Z,14.00
2023-04-05T07:49:44.598Z,14.00
2023-04-05T07:52:15.614Z,14.20
2023-04-05T07:54:46.217Z,14.30
2023-04-05T07:57:19.123Z,14.40
2023-04-05T07:59:51.833Z,14.40
2023-04-05T08:02:21.128Z,14.60
2023-04-05T08:04:50.588Z,14.50
2023-04-05T08:07:22.594Z,14.60
2023-04-05T08:09:51.746Z,14.60
2023-04-05T08:12:20.869Z,14.50
2023-04-05T08:14:51.031Z,14.80
2023-04-05T08:17:20.368Z,14.90
2023-04-05T08:19:49.913Z,14.80
2023-04-05T08:22:19.730Z,14.60
2023-04-05T08:24:50.357Z,14.80
2023-04-05T08:27:19.384Z,15.00
2023-04-05T08:29:49.262Z,15.00
2023-04-05T08:32:18.112Z,15.10
2023-04-05T08:34:47.496Z,15.10
2023-04-05T08:37:17.340Z,15.10
2023-04-05T08:39:46.784Z,15.00
2023-04-05T08:42:20.319Z,15.20
2023-04-05T08:44:53.777Z,15.50
2023-04-05T08:47:25.437Z,15.60
2023-04-05T08:49:55.007Z,15.70
2023-04-05T08:52:23.968Z,15.80
2023-04-05T08:54:57.201Z,15.80
2023-04-05T08:57:30.385Z,15.60
2023-04-05T09:00:03.520Z,15.70
2023-04-05T09:02:33.609Z,15.50
2023-04-05T09:05:04.068Z,15.80
2023-04-05T09:07:34.031Z,16.00
2023-04-05T09:10:04.944Z,16.30
2023-04-05T09:12:39.473Z,16.40
2023-04-05T09:15:09.884Z,16.50
2023-04-05T09:17:41.372Z,16.50
2023-04-05T09:20:11.462Z,16.50
2023-04-05T09:22:47.359Z,16.50
2023-04-05T09:25:35.715Z,16.60
2023-04-05T09:28:08.363Z,16.80
2023-04-05T09:30:38.140Z,16.80
2023-04-05T09:33:11.220Z,16.50
2023-04-05T09:35:40.577Z,16.30
2023-04-05T09:38:09.471Z,16.40
2023-04-05T09:40:45.492Z,16.50
2023-04-05T09:43:40.661Z,16.60
2023-04-05T09:46:31.184Z,16.90
2023-04-05T09:49:00.773Z,16.70
2023-04-05T09:51:38.321Z,16.80
2023-04-05T09:54:10.869Z,16.60
2023-04-05T09:56:43.037Z,16.70
2023-04-05T09:59:14.121Z,16.90
2023-04-05T10:01:45.970Z,16.90
2023-04-05T10:04:15.876Z,16.90
2023-04-05T10:06:45.355Z,16.70
2023-04-05T10:09:15.436Z,16.90
2023-04-05T10:11:46.657Z,16.70
2023-04-05T10:14:18.050Z,16.80
2023-04-05T10:16:58.490Z,16.80
2023-04-05T10:19:34.026Z,17.10
2023-04-05T10:22:10.487Z,17.20
2023-04-05T10:24:47.475Z,17.20
2023-04-05T10:27:24.183Z,17.00
2023-04-05T10:30:06.059Z,17.00
2023-04-05T10:32:44.627Z,17.30
2023-04-05T10:35:19.599Z,17.40
2023-04-05T10:38:02.620Z,17.30
2023-04-05T10:40:34.467Z,17.50
2023-04-05T10:43:08.982Z,17.70
2023-04-05T10:45:42.185Z,17.70
2023-04-05T10:48:21.642Z,17.70
2023-04-05T10:50:51.792Z,17.80
2023-04-05T10:53:22.540Z,17.60
2023-04-05T10:55:53.748Z,17.60
2023-04-05T10:58:26.179Z,17.40
2023-04-05T11:01:06.033Z,17.60
2023-04-05T11:03:49.686Z,18.10
2023-04-05T11:06:24.458Z,18.30
2023-04-05T11:09:16.010Z,18.10
2023-04-05T11:11:46.322Z,17.60
2023-04-05T11:14:23.778Z,17.80
2023-04-05T11:16:57.002Z,17.80
2023-04-05T11:19:52.759Z,17.30
2023-04-05T11:22:30.950Z,17.80
2023-04-05T11:25:03.578Z,18.10
2023-04-05T11:27:34.622Z,18.30
2023-04-05T11:30:07.044Z,18.40
2023-04-05T11:32:45.189Z,18.10
2023-04-05T11:35:18.607Z,18.10
2023-04-05T11:37:58.994Z,18.40
2023-04-05T11:40:33.309Z,18.20
2023-04-05T11:43:07.980Z,18.20
2023-04-05T11:45:39.386Z,18.50
2023-04-05T11:48:12.132Z,18.50
2023-04-05T11:50:43.200Z,18.70
2023-04-05T11:53:13.540Z,18.50
2023-04-05T11:55:48.659Z,17.90
2023-04-05T11:58:19.205Z,17.80
2023-04-05T12:01:02.191Z,18.30
2023-04-05T12:03:33.986Z,18.30
2023-04-05T12:06:04.043Z,18.50
2023-04-05T12:08:43.031Z,18.60
2023-04-05T12:11:13.757Z,18.30
2023-04-05T12:13:42.847Z,18.50
2023-04-05T12:16:12.217Z,18.70
2023-04-05T12:18:42.638Z,18.90
2023-04-05T12:21:12.645Z,18.50
2023-04-05T12:23:42.078Z,18.40
2023-04-05T12:26:11.546Z,18.80
2023-04-05T12:28:54.720Z,19.10
2023-04-05T12:31:42.966Z,18.60
2023-04-05T12:34:16.077Z,18.50
2023-04-05T12:36:48.644Z,18.40
2023-04-05T12:39:19.622Z,18.50
2023-04-05T12:41:58.588Z,18.70
2023-04-05T12:44:32.984Z,18.60
2023-04-05T12:47:05.261Z,19.00
2023-04-05T12:49:39.682Z,18.80
2023-04-05T12:52:09.004Z,18.50
2023-04-05T12:54:38.473Z,18.70
2023-04-05T12:57:12.576Z,18.90
2023-04-05T12:59:41.742Z,19.10
2023-04-05T13:02:12.088Z,19.00
2023-04-05T13:04:43.375Z,18.80
2023-04-05T13:07:12.766Z,19.10
2023-04-05T13:09:41.769Z,19.20
2023-04-05T13:12:11.701Z,18.70
2023-04-05T13:14:40.763Z,18.50
2023-04-05T13:17:10.781Z,18.90
2023-04-05T13:19:40.474Z,19.10
2023-04-05T13:22:11.733Z,19.00
2023-04-05T13:24:40.925Z,19.00
2023-04-05T13:27:10.079Z,19.00
2023-04-05T13:29:39.282Z,19.20
2023-04-05T13:32:08.668Z,18.70
2023-04-05T13:34:38.006Z,18.80
2023-04-05T13:37:06.963Z,18.90
2023-04-05T13:39:38.138Z,18.70
2023-04-05T13:42:08.275Z,18.80
2023-04-05T13:44:38.283Z,18.80
2023-04-05T13:47:07.799Z,19.20
2023-04-05T13:49:37.766Z,18.90
2023-04-05T13:52:07.652Z,19.00
2023-04-05T13:54:39.031Z,19.20
2023-04-05T13:57:08.691Z,19.10
2023-04-05T13:59:37.999Z,19.00
2023-04-05T14:02:08.789Z,19.30
2023-04-05T14:04:38.625Z,19.00
2023-04-05T14:07:08.174Z,19.30
2023-04-05T14:09:38.777Z,19.50
2023-04-05T14:12:08.622Z,19.10
2023-04-05T14:14:37.695Z,18.80
2023-04-05T14:17:07.721Z,19.20
2023-04-05T14:19:36.632Z,18.70
2023-04-05T14:22:06.561Z,18.90
2023-04-05T14:24:35.999Z,18.80
2023-04-05T14:27:06.782Z,19.10
2023-04-05T14:29:36.280Z,19.60
2023-04-05T14:32:06.942Z,20.40
2023-04-05T14:34:36.845Z,20.50
2023-04-05T14:37:08.477Z,20.50
2023-04-05T14:39:37.990Z,19.90
2023-04-05T14:42:08.719Z,20.50
2023-04-05T14:44:37.969Z,21.00
2023-04-05T14:47:07.219Z,20.80
2023-04-05T14:49:37.839Z,21.00
2023-04-05T14:52:07.035Z,21.10
2023-04-05T14:54:37.287Z,20.90
2023-04-05T14:57:08.719Z,21.10
2023-04-05T14:59:38.836Z,20.80
2023-04-05T15:02:07.940Z,21.30
2023-04-05T15:04:38.774Z,21.40
2023-04-05T15:07:08.634Z,21.20
2023-04-05T15:09:38.028Z,21.50
2023-04-05T15:12:09.338Z,21.50
2023-04-05T15:14:39.695Z,21.30
2023-04-05T15:17:08.838Z,20.70
2023-04-05T15:19:39.178Z,20.00
2023-04-05T15:22:08.425Z,20.60
2023-04-05T15:24:39.290Z,20.20
2023-04-05T15:27:10.823Z,20.20
